sensor_id;sensor_type;location;lat;lon;timestamp;P1;durP1;ratioP1;P2;durP2;ratioP2
2724;SDS011;1370;52.596;13.112;2023-03-01T00:01:16;25.98;;;18.20;;
2724;SDS011;1370;52.596;13.112;2023-03-01T00:03:43;24.15;;;17.00;;
2724;SDS011;1370;52.596;13.112;2023-03-01T00:06:08;30.60;;;20.50;;
2724;SDS011;1370;52.596;13.112;2023-03-01T00:08:34;35.00;;;25.20;;
2724;SDS011;1370;52.596;13.112;2023-03-01T00:11:45;32.23;;;23.37;;
2724;SDS011;1370;52.596;13.112;2023-03-01T00:13:47;33.15;;;23.05;;
2724;SDS011;1370;52.596;13.112;2023-03-01T00:16:18;31.85;;;22.25;;
2724;SDS011;1370;52.596;13.112;2023-03-01T00:18:46;38.22;;;25.02;;
2724;SDS011;1370;52.596;13.112;2023-03-01T00:21:11;31.50;;;22.60;;
2724;SDS011;1370;52.596;13.112;2023-03-01T00:23:37;33.60;;;24.47;;
2724;SDS011;1370;52.596;13.112;2023-03-01T00:26:05;33.15;;;23.00;;
2724;SDS011;1370;52.596;13.112;2023-03-01T00:28:31;28.35;;;20.60;;
2724;SDS011;1370;52.596;13.112;2023-03-01T00:31:01;37.03;;;25.40;;
2724;SDS011;1370;52.596;13.112;2023-03-01T00:33:34;39.72;;;26.13;;
2724;SDS011;1370;52.596;13.112;2023-03-01T00:35:59;39.90;;;25.60;;
2724;SDS011;1370;52.596;13.112;2023-03-01T00:38:25;48.40;;;26.10;;
2724;SDS011;1370;52.596;13.112;2023-03-01T00:40:50;40.17;;;26.70;;
2724;SDS011;1370;52.596;13.112;2023-03-01T00:43:15;39.60;;;27.47;;
2724;SDS011;1370;52.596;13.112;2023-03-01T00:45:41;40.83;;;24.73;;
2724;SDS011;1370;52.596;13.112;2023-03-01T00:48:06;37.33;;;23.07;;
2724;SDS011;1370;52.596;13.112;2023-03-01T00:50:31;31.07;;;23.07;;
2724;SDS011;1370;52.596;13.112;2023-03-01T00:52:57;28.67;;;20.33;;
2724;SDS011;1370;52.596;13.112;2023-03-01T00:55:22;22.23;;;19.00;;
2724;SDS011;1370;52.596;13.112;2023-03-01T00:57:48;31.30;;;18.93;;
2724;SDS011;1370;52.596;13.112;2023-03-01T01:00:13;31.13;;;18.13;;
2724;SDS011;1370;52.596;13.112;2023-03-01T01:02:38;25.17;;;16.17;;
2724;SDS011;1370;52.596;13.112;2023-03-01T01:05:04;18.07;;;14.57;;
2724;SDS011;1370;52.596;13.112;2023-03-01T01:07:29;19.03;;;13.43;;
2724;SDS011;1370;52.596;13.112;2023-03-01T01:09:55;22.10;;;14.77;;
2724;SDS011;1370;52.596;13.112;2023-03-01T01:12:20;27.17;;;16.10;;
2724;SDS011;1370;52.596;13.112;2023-03-01T01:14:45;20.57;;;13.77;;
2724;SDS011;1370;52.596;13.112;2023-03-01T01:17:11;15.67;;;14.07;;
2724;SDS011;1370;52.596;13.112;2023-03-01T01:19:36;23.67;;;14.97;;
2724;SDS011;1370;52.596;13.112;2023-03-01T01:22:01;21.53;;;16.07;;
2724;SDS011;1370;52.596;13.112;2023-03-01T01:24:27;17.53;;;14.43;;
2724;SDS011;1370;52.596;13.112;2023-03-01T01:26:52;23.20;;;15.20;;
2724;SDS011;1370;52.596;13.112;2023-03-01T01:29:17;19.20;;;14.07;;
2724;SDS011;1370;52.596;13.112;2023-03-01T01:31:43;27.00;;;14.30;;
2724;SDS011;1370;52.596;13.112;2023-03-01T01:34:09;18.90;;;14.17;;
2724;SDS011;1370;52.596;13.112;2023-03-01T01:36:39;22.83;;;12.20;;
2724;SDS011;1370;52.596;13.112;2023-03-01T01:39:04;14.97;;;12.70;;
2724;SDS011;1370;52.596;13.112;2023-03-01T01:41:29;16.80;;;13.90;;
2724;SDS011;1370;52.596;13.112;2023-03-01T01:46:46;20.00;;;13.50;;
2724;SDS011;1370;52.596;13.112;2023-03-01T01:49:17;25.33;;;12.75;;
2724;SDS011;1370;52.596;13.112;2023-03-01T01:52:08;23.92;;;14.82;;
2724;SDS011;1370;52.596;13.112;2023-03-01T01:54:40;17.30;;;11.60;;
2724;SDS011;1370;52.596;13.112;2023-03-01T01:57:16;13.90;;;12.40;;
2724;SDS011;1370;52.596;13.112;2023-03-01T01:59:45;17.00;;;13.65;;
2724;SDS011;1370;52.596;13.112;2023-03-01T02:02:14;13.35;;;11.75;;
2724;SDS011;1370;52.596;13.112;2023-03-01T02:04:39;16.70;;;11.70;;
2724;SDS011;1370;52.596;13.112;2023-03-01T02:07:14;13.23;;;11.37;;
2724;SDS011;1370;52.596;13.112;2023-03-01T02:09:42;15.05;;;11.10;;
2724;SDS011;1370;52.596;13.112;2023-03-01T02:12:11;14.25;;;11.73;;
2724;SDS011;1370;52.596;13.112;2023-03-01T02:14:36;17.77;;;11.87;;
2724;SDS011;1370;52.596;13.112;2023-03-01T02:17:01;15.73;;;10.90;;
2724;SDS011;1370;52.596;13.112;2023-03-01T02:19:37;16.03;;;11.33;;
2724;SDS011;1370;52.596;13.112;2023-03-01T02:22:18;13.82;;;12.35;;
2724;SDS011;1370;52.596;13.112;2023-03-01T02:24:59;22.52;;;11.88;;
2724;SDS011;1370;52.596;13.112;2023-03-01T02:30:30;20.33;;;13.32;;
2724;SDS011;1370;52.596;13.112;2023-03-01T02:32:57;22.58;;;13.02;;
2724;SDS011;1370;52.596;13.112;2023-03-01T02:35:27;23.92;;;14.80;;
2724;SDS011;1370;52.596;13.112;2023-03-01T02:37:54;16.08;;;12.45;;
2724;SDS011;1370;52.596;13.112;2023-03-01T02:40:22;18.00;;;13.50;;
2724;SDS011;1370;52.596;13.112;2023-03-01T02:42:52;20.07;;;13.13;;
2724;SDS011;1370;52.596;13.112;2023-03-01T02:45:19;19.73;;;14.82;;
2724;SDS011;1370;52.596;13.112;2023-03-01T02:47:44;19.67;;;12.77;;
2724;SDS011;1370;52.596;13.112;2023-03-01T02:50:21;17.63;;;13.10;;
2724;SDS011;1370;52.596;13.112;2023-03-01T02:52:57;16.63;;;12.32;;
2724;SDS011;1370;52.596;13.112;2023-03-01T02:55:33;20.33;;;13.15;;
2724;SDS011;1370;52.596;13.112;2023-03-01T02:57:58;15.50;;;13.90;;
2724;SDS011;1370;52.596;13.112;2023-03-01T03:00:28;25.80;;;17.33;;
2724;SDS011;1370;52.596;13.112;2023-03-01T03:02:58;24.38;;;17.17;;
2724;SDS011;1370;52.596;13.112;2023-03-01T03:05:27;18.13;;;14.80;;
2724;SDS011;1370;52.596;13.112;2023-03-01T03:07:53;21.33;;;17.38;;
2724;SDS011;1370;52.596;13.112;2023-03-01T03:10:21;21.13;;;16.00;;
2724;SDS011;1370;52.596;13.112;2023-03-01T03:12:52;24.15;;;14.90;;
2724;SDS011;1370;52.596;13.112;2023-03-01T03:15:19;21.83;;;17.17;;
2724;SDS011;1370;52.596;13.112;2023-03-01T03:17:45;26.83;;;18.17;;
2724;SDS011;1370;52.596;13.112;2023-03-01T03:20:11;18.77;;;14.43;;
2724;SDS011;1370;52.596;13.112;2023-03-01T03:22:41;19.30;;;14.75;;
2724;SDS011;1370;52.596;13.112;2023-03-01T03:25:07;24.10;;;15.05;;
2724;SDS011;1370;52.596;13.112;2023-03-01T03:27:36;22.08;;;15.45;;
2724;SDS011;1370;52.596;13.112;2023-03-01T03:30:02;21.55;;;15.30;;
2724;SDS011;1370;52.596;13.112;2023-03-01T03:32:30;20.58;;;14.93;;
2724;SDS011;1370;52.596;13.112;2023-03-01T03:34:55;24.50;;;15.63;;
2724;SDS011;1370;52.596;13.112;2023-03-01T03:37:20;17.80;;;13.67;;
2724;SDS011;1370;52.596;13.112;2023-03-01T03:40:04;18.05;;;13.57;;
2724;SDS011;1370;52.596;13.112;2023-03-01T03:42:40;15.73;;;13.35;;
2724;SDS011;1370;52.596;13.112;2023-03-01T03:45:05;19.27;;;14.10;;
2724;SDS011;1370;52.596;13.112;2023-03-01T03:47:30;21.60;;;14.90;;
2724;SDS011;1370;52.596;13.112;2023-03-01T03:49:56;21.80;;;15.90;;
2724;SDS011;1370;52.596;13.112;2023-03-01T03:52:21;15.33;;;13.77;;
2724;SDS011;1370;52.596;13.112;2023-03-01T03:54:46;16.17;;;12.20;;
2724;SDS011;1370;52.596;13.112;2023-03-01T03:57:12;18.10;;;14.20;;
2724;SDS011;1370;52.596;13.112;2023-03-01T03:59:37;18.13;;;15.30;;
2724;SDS011;1370;52.596;13.112;2023-03-01T04:02:02;17.50;;;14.20;;
2724;SDS011;1370;52.596;13.112;2023-03-01T04:04:27;19.13;;;14.03;;
2724;SDS011;1370;52.596;13.112;2023-03-01T04:06:53;19.50;;;13.43;;
2724;SDS011;1370;52.596;13.112;2023-03-01T04:09:18;21.57;;;14.53;;
2724;SDS011;1370;52.596;13.112;2023-03-01T04:11:43;21.80;;;13.70;;
2724;SDS011;1370;52.596;13.112;2023-03-01T04:14:09;21.93;;;15.23;;
2724;SDS011;1370;52.596;13.112;2023-03-01T04:16:34;21.00;;;14.70;;
2724;SDS011;1370;52.596;13.112;2023-03-01T04:19:00;22.10;;;14.77;;
2724;SDS011;1370;52.596;13.112;2023-03-01T04:21:25;18.00;;;14.90;;
2724;SDS011;1370;52.596;13.112;2023-03-01T04:23:51;23.73;;;13.33;;
2724;SDS011;1370;52.596;13.112;2023-03-01T04:26:17;16.35;;;14.63;;
2724;SDS011;1370;52.596;13.112;2023-03-01T04:28:43;19.47;;;14.17;;
2724;SDS011;1370;52.596;13.112;2023-03-01T04:31:14;23.33;;;13.00;;
2724;SDS011;1370;52.596;13.112;2023-03-01T04:33:43;17.92;;;14.75;;
2724;SDS011;1370;52.596;13.112;2023-03-01T04:36:11;15.20;;;13.38;;
2724;SDS011;1370;52.596;13.112;2023-03-01T04:38:38;17.48;;;12.85;;
2724;SDS011;1370;52.596;13.112;2023-03-01T04:41:04;19.35;;;12.82;;
2724;SDS011;1370;52.596;13.112;2023-03-01T04:43:34;25.02;;;15.10;;
2724;SDS011;1370;52.596;13.112;2023-03-01T04:46:00;21.43;;;14.83;;
2724;SDS011;1370;52.596;13.112;2023-03-01T04:48:27;21.02;;;13.70;;
2724;SDS011;1370;52.596;13.112;2023-03-01T04:50:52;17.60;;;12.50;;
2724;SDS011;1370;52.596;13.112;2023-03-01T04:53:18;20.70;;;13.67;;
2724;SDS011;1370;52.596;13.112;2023-03-01T04:55:43;21.43;;;14.93;;
2724;SDS011;1370;52.596;13.112;2023-03-01T04:58:08;21.37;;;12.50;;
2724;SDS011;1370;52.596;13.112;2023-03-01T05:00:34;21.10;;;13.30;;
2724;SDS011;1370;52.596;13.112;2023-03-01T05:03:00;21.60;;;14.13;;
2724;SDS011;1370;52.596;13.112;2023-03-01T05:05:30;15.00;;;13.00;;
2724;SDS011;1370;52.596;13.112;2023-03-01T05:07:58;16.90;;;12.65;;
2724;SDS011;1370;52.596;13.112;2023-03-01T05:10:25;17.02;;;11.85;;
2724;SDS011;1370;52.596;13.112;2023-03-01T05:12:51;25.10;;;14.60;;
2724;SDS011;1370;52.596;13.112;2023-03-01T05:15:18;19.77;;;13.10;;
2724;SDS011;1370;52.596;13.112;2023-03-01T05:17:43;17.67;;;12.40;;
2724;SDS011;1370;52.596;13.112;2023-03-01T05:20:09;18.10;;;12.70;;
2724;SDS011;1370;52.596;13.112;2023-03-01T05:22:35;20.23;;;11.45;;
2724;SDS011;1370;52.596;13.112;2023-03-01T05:25:00;17.23;;;12.57;;
2724;SDS011;1370;52.596;13.112;2023-03-01T05:27:26;17.10;;;10.87;;
2724;SDS011;1370;52.596;13.112;2023-03-01T05:29:51;20.03;;;13.03;;
2724;SDS011;1370;52.596;13.112;2023-03-01T05:32:16;13.93;;;10.33;;
2724;SDS011;1370;52.596;13.112;2023-03-01T05:34:42;11.30;;;10.17;;
2724;SDS011;1370;52.596;13.112;2023-03-01T05:37:08;16.37;;;11.33;;
2724;SDS011;1370;52.596;13.112;2023-03-01T05:39:33;20.67;;;12.10;;
2724;SDS011;1370;52.596;13.112;2023-03-01T05:41:59;21.93;;;12.27;;
2724;SDS011;1370;52.596;13.112;2023-03-01T05:44:26;15.13;;;10.55;;
2724;SDS011;1370;52.596;13.112;2023-03-01T05:46:52;17.25;;;12.20;;
2724;SDS011;1370;52.596;13.112;2023-03-01T05:49:17;19.13;;;11.73;;
2724;SDS011;1370;52.596;13.112;2023-03-01T05:51:43;18.10;;;10.73;;
2724;SDS011;1370;52.596;13.112;2023-03-01T05:54:12;17.65;;;10.80;;
2724;SDS011;1370;52.596;13.112;2023-03-01T05:56:38;14.40;;;11.13;;
2724;SDS011;1370;52.596;13.112;2023-03-01T05:59:04;16.83;;;11.30;;
2724;SDS011;1370;52.596;13.112;2023-03-01T06:01:30;12.57;;;9.75;;
2724;SDS011;1370;52.596;13.112;2023-03-01T06:03:55;15.93;;;11.30;;
2724;SDS011;1370;52.596;13.112;2023-03-01T06:06:21;13.73;;;10.80;;
2724;SDS011;1370;52.596;13.112;2023-03-01T06:08:47;12.83;;;10.57;;
2724;SDS011;1370;52.596;13.112;2023-03-01T06:11:12;20.47;;;10.57;;
2724;SDS011;1370;52.596;13.112;2023-03-01T06:13:37;18.97;;;10.77;;
2724;SDS011;1370;52.596;13.112;2023-03-01T06:16:06;14.57;;;10.27;;
2724;SDS011;1370;52.596;13.112;2023-03-01T06:18:32;12.93;;;10.48;;
2724;SDS011;1370;52.596;13.112;2023-03-01T06:20:57;12.47;;;9.93;;
2724;SDS011;1370;52.596;13.112;2023-03-01T06:23:22;15.70;;;10.93;;
2724;SDS011;1370;52.596;13.112;2023-03-01T06:25:48;12.13;;;10.47;;
2724;SDS011;1370;52.596;13.112;2023-03-01T06:28:14;14.27;;;11.10;;
2724;SDS011;1370;52.596;13.112;2023-03-01T06:30:39;11.10;;;9.93;;
2724;SDS011;1370;52.596;13.112;2023-03-01T06:33:04;15.63;;;11.13;;
2724;SDS011;1370;52.596;13.112;2023-03-01T06:35:30;22.00;;;11.50;;
2724;SDS011;1370;52.596;13.112;2023-03-01T06:37:55;15.13;;;10.83;;
2724;SDS011;1370;52.596;13.112;2023-03-01T06:40:21;11.50;;;10.27;;
2724;SDS011;1370;52.596;13.112;2023-03-01T06:42:50;18.57;;;13.07;;
2724;SDS011;1370;52.596;13.112;2023-03-01T06:45:15;17.60;;;14.35;;
2724;SDS011;1370;52.596;13.112;2023-03-01T06:47:41;20.98;;;15.55;;
2724;SDS011;1370;52.596;13.112;2023-03-01T06:50:07;24.63;;;19.53;;
2724;SDS011;1370;52.596;13.112;2023-03-01T06:52:33;24.77;;;19.50;;
2724;SDS011;1370;52.596;13.112;2023-03-01T06:54:58;19.80;;;14.60;;
2724;SDS011;1370;52.596;13.112;2023-03-01T06:57:26;19.08;;;16.73;;
2724;SDS011;1370;52.596;13.112;2023-03-01T06:59:51;22.63;;;17.87;;
2724;SDS011;1370;52.596;13.112;2023-03-01T07:02:16;29.27;;;18.30;;
2724;SDS011;1370;52.596;13.112;2023-03-01T07:04:42;18.10;;;16.27;;
2724;SDS011;1370;52.596;13.112;2023-03-01T07:07:07;18.93;;;15.10;;
2724;SDS011;1370;52.596;13.112;2023-03-01T07:09:33;18.60;;;13.50;;
2724;SDS011;1370;52.596;13.112;2023-03-01T07:11:58;20.60;;;15.80;;
2724;SDS011;1370;52.596;13.112;2023-03-01T07:14:23;54.07;;;18.10;;
2724;SDS011;1370;52.596;13.112;2023-03-01T07:16:50;22.10;;;16.70;;
2724;SDS011;1370;52.596;13.112;2023-03-01T07:19:16;21.93;;;17.20;;
2724;SDS011;1370;52.596;13.112;2023-03-01T07:21:41;25.17;;;19.20;;
2724;SDS011;1370;52.596;13.112;2023-03-01T07:24:07;35.37;;;22.83;;
2724;SDS011;1370;52.596;13.112;2023-03-01T07:26:32;28.03;;;20.47;;
2724;SDS011;1370;52.596;13.112;2023-03-01T07:29:01;31.87;;;21.20;;
2724;SDS011;1370;52.596;13.112;2023-03-01T07:31:27;23.88;;;19.80;;
2724;SDS011;1370;52.596;13.112;2023-03-01T07:33:53;25.00;;;19.73;;
2724;SDS011;1370;52.596;13.112;2023-03-01T07:36:19;32.80;;;24.30;;
2724;SDS011;1370;52.596;13.112;2023-03-01T07:38:44;33.63;;;24.10;;
2724;SDS011;1370;52.596;13.112;2023-03-01T07:41:09;36.03;;;22.17;;
2724;SDS011;1370;52.596;13.112;2023-03-01T07:43:35;25.97;;;18.80;;
2724;SDS011;1370;52.596;13.112;2023-03-01T07:46:00;16.07;;;14.27;;
2724;SDS011;1370;52.596;13.112;2023-03-01T07:48:26;21.07;;;14.40;;
2724;SDS011;1370;52.596;13.112;2023-03-01T07:50:52;25.53;;;16.73;;
2724;SDS011;1370;52.596;13.112;2023-03-01T07:53:17;22.77;;;16.13;;
2724;SDS011;1370;52.596;13.112;2023-03-01T07:55:42;21.33;;;16.57;;
2724;SDS011;1370;52.596;13.112;2023-03-01T07:58:08;18.27;;;14.70;;
2724;SDS011;1370;52.596;13.112;2023-03-01T08:00:33;23.67;;;16.03;;
2724;SDS011;1370;52.596;13.112;2023-03-01T08:02:59;18.40;;;14.30;;
2724;SDS011;1370;52.596;13.112;2023-03-01T08:05:25;20.87;;;16.20;;
2724;SDS011;1370;52.596;13.112;2023-03-01T08:07:50;21.53;;;15.47;;
2724;SDS011;1370;52.596;13.112;2023-03-01T08:10:16;16.97;;;14.73;;
2724;SDS011;1370;52.596;13.112;2023-03-01T08:12:41;25.87;;;15.47;;
2724;SDS011;1370;52.596;13.112;2023-03-01T08:15:07;19.60;;;14.90;;
2724;SDS011;1370;52.596;13.112;2023-03-01T08:17:33;19.40;;;15.53;;
2724;SDS011;1370;52.596;13.112;2023-03-01T08:19:58;20.33;;;13.67;;
2724;SDS011;1370;52.596;13.112;2023-03-01T08:22:24;17.53;;;14.53;;
2724;SDS011;1370;52.596;13.112;2023-03-01T08:24:50;21.43;;;15.47;;
2724;SDS011;1370;52.596;13.112;2023-03-01T08:27:16;17.27;;;13.47;;
2724;SDS011;1370;52.596;13.112;2023-03-01T08:29:41;19.67;;;14.40;;
2724;SDS011;1370;52.596;13.112;2023-03-01T08:32:07;14.70;;;12.30;;
2724;SDS011;1370;52.596;13.112;2023-03-01T08:34:32;17.00;;;12.97;;
2724;SDS011;1370;52.596;13.112;2023-03-01T08:37:00;18.13;;;14.53;;
2724;SDS011;1370;52.596;13.112;2023-03-01T08:39:25;18.40;;;13.83;;
2724;SDS011;1370;52.596;13.112;2023-03-01T08:41:51;16.40;;;13.20;;
2724;SDS011;1370;52.596;13.112;2023-03-01T08:44:16;16.23;;;12.90;;
2724;SDS011;1370;52.596;13.112;2023-03-01T08:46:42;14.03;;;12.57;;
2724;SDS011;1370;52.596;13.112;2023-03-01T08:49:09;13.13;;;11.60;;
2724;SDS011;1370;52.596;13.112;2023-03-01T08:51:43;15.70;;;12.87;;
2724;SDS011;1370;52.596;13.112;2023-03-01T08:54:10;12.50;;;10.40;;
2724;SDS011;1370;52.596;13.112;2023-03-01T08:56:44;12.93;;;11.37;;
2724;SDS011;1370;52.596;13.112;2023-03-01T08:59:12;13.30;;;9.23;;
2724;SDS011;1370;52.596;13.112;2023-03-01T09:01:39;10.10;;;8.50;;
2724;SDS011;1370;52.596;13.112;2023-03-01T09:04:05;12.27;;;9.70;;
2724;SDS011;1370;52.596;13.112;2023-03-01T09:06:33;12.60;;;9.10;;
2724;SDS011;1370;52.596;13.112;2023-03-01T09:08:58;10.20;;;7.73;;
2724;SDS011;1370;52.596;13.112;2023-03-01T09:11:24;8.30;;;7.60;;
2724;SDS011;1370;52.596;13.112;2023-03-01T09:13:49;10.03;;;7.53;;
2724;SDS011;1370;52.596;13.112;2023-03-01T09:16:16;9.43;;;8.00;;
2724;SDS011;1370;52.596;13.112;2023-03-01T09:18:43;6.83;;;6.27;;
2724;SDS011;1370;52.596;13.112;2023-03-01T09:21:13;7.87;;;7.00;;
2724;SDS011;1370;52.596;13.112;2023-03-01T09:23:44;7.93;;;7.13;;
2724;SDS011;1370;52.596;13.112;2023-03-01T09:26:12;7.53;;;6.67;;
2724;SDS011;1370;52.596;13.112;2023-03-01T09:28:39;9.57;;;6.70;;
2724;SDS011;1370;52.596;13.112;2023-03-01T09:31:06;7.07;;;6.37;;
2724;SDS011;1370;52.596;13.112;2023-03-01T09:33:31;7.70;;;5.93;;
2724;SDS011;1370;52.596;13.112;2023-03-01T09:35:58;8.77;;;6.63;;
2724;SDS011;1370;52.596;13.112;2023-03-01T09:38:30;5.77;;;5.17;;
2724;SDS011;1370;52.596;13.112;2023-03-01T09:40:55;9.87;;;6.73;;
2724;SDS011;1370;52.596;13.112;2023-03-01T09:43:30;6.87;;;5.80;;
2724;SDS011;1370;52.596;13.112;2023-03-01T09:46:05;11.37;;;6.50;;
2724;SDS011;1370;52.596;13.112;2023-03-01T09:48:35;8.63;;;6.87;;
2724;SDS011;1370;52.596;13.112;2023-03-01T09:51:05;6.83;;;6.20;;
2724;SDS011;1370;52.596;13.112;2023-03-01T09:53:33;8.57;;;6.83;;
2724;SDS011;1370;52.596;13.112;2023-03-01T10:01:34;6.90;;;6.20;;
2724;SDS011;1370;52.596;13.112;2023-03-01T10:04:23;10.20;;;5.67;;
2724;SDS011;1370;52.596;13.112;2023-03-01T10:06:52;6.47;;;5.87;;
2724;SDS011;1370;52.596;13.112;2023-03-01T10:09:27;6.67;;;5.83;;
2724;SDS011;1370;52.596;13.112;2023-03-01T10:11:55;5.67;;;4.97;;
2724;SDS011;1370;52.596;13.112;2023-03-01T10:14:28;4.80;;;4.37;;
2724;SDS011;1370;52.596;13.112;2023-03-01T10:17:00;6.40;;;5.10;;
2724;SDS011;1370;52.596;13.112;2023-03-01T10:19:42;6.57;;;5.20;;
2724;SDS011;1370;52.596;13.112;2023-03-01T10:22:27;8.73;;;4.47;;
2724;SDS011;1370;52.596;13.112;2023-03-01T10:24:53;4.97;;;4.33;;
2724;SDS011;1370;52.596;13.112;2023-03-01T10:27:34;4.10;;;3.80;;
2724;SDS011;1370;52.596;13.112;2023-03-01T10:30:13;5.20;;;4.27;;
2724;SDS011;1370;52.596;13.112;2023-03-01T10:32:42;8.17;;;4.20;;
2724;SDS011;1370;52.596;13.112;2023-03-01T10:35:42;4.80;;;4.27;;
2724;SDS011;1370;52.596;13.112;2023-03-01T10:38:08;9.53;;;6.17;;
2724;SDS011;1370;52.596;13.112;2023-03-01T10:40:41;4.83;;;4.00;;
2724;SDS011;1370;52.596;13.112;2023-03-01T10:43:16;5.93;;;5.40;;
2724;SDS011;1370;52.596;13.112;2023-03-01T10:45:41;4.60;;;4.20;;
2724;SDS011;1370;52.596;13.112;2023-03-01T10:48:20;5.00;;;4.10;;
2724;SDS011;1370;52.596;13.112;2023-03-01T10:56:05;5.13;;;3.70;;
2724;SDS011;1370;52.596;13.112;2023-03-01T10:58:31;5.37;;;4.47;;
2724;SDS011;1370;52.596;13.112;2023-03-01T11:00:58;5.93;;;3.70;;
2724;SDS011;1370;52.596;13.112;2023-03-01T11:03:36;7.83;;;6.30;;
2724;SDS011;1370;52.596;13.112;2023-03-01T11:08:38;26.97;;;18.57;;
2724;SDS011;1370;52.596;13.112;2023-03-01T11:16:45;10.40;;;8.90;;
2724;SDS011;1370;52.596;13.112;2023-03-01T11:21:42;14.53;;;12.90;;
2724;SDS011;1370;52.596;13.112;2023-03-01T11:24:12;77.70;;;39.07;;
2724;SDS011;1370;52.596;13.112;2023-03-01T11:26:39;89.07;;;41.93;;
2724;SDS011;1370;52.596;13.112;2023-03-01T11:29:12;8.70;;;6.40;;
2724;SDS011;1370;52.596;13.112;2023-03-01T11:31:43;4.03;;;3.50;;
2724;SDS011;1370;52.596;13.112;2023-03-01T11:34:17;9.37;;;5.43;;
2724;SDS011;1370;52.596;13.112;2023-03-01T11:41:48;6.10;;;3.83;;
2724;SDS011;1370;52.596;13.112;2023-03-01T11:44:18;3.17;;;2.87;;
2724;SDS011;1370;52.596;13.112;2023-03-01T11:55:29;5.83;;;3.40;;
2724;SDS011;1370;52.596;13.112;2023-03-01T12:05:52;5.80;;;3.00;;
2724;SDS011;1370;52.596;13.112;2023-03-01T12:08:49;3.40;;;2.80;;
2724;SDS011;1370;52.596;13.112;2023-03-01T12:14:35;4.03;;;3.70;;
2724;SDS011;1370;52.596;13.112;2023-03-01T12:17:07;3.80;;;2.27;;
2724;SDS011;1370;52.596;13.112;2023-03-01T12:22:17;7.73;;;4.80;;
2724;SDS011;1370;52.596;13.112;2023-03-01T12:30:24;4.80;;;3.17;;
2724;SDS011;1370;52.596;13.112;2023-03-01T12:33:00;11.73;;;7.47;;
2724;SDS011;1370;52.596;13.112;2023-03-01T12:41:32;7.97;;;3.53;;
2724;SDS011;1370;52.596;13.112;2023-03-01T12:44:10;3.50;;;3.10;;
2724;SDS011;1370;52.596;13.112;2023-03-01T12:49:31;5.80;;;3.90;;
2724;SDS011;1370;52.596;13.112;2023-03-01T12:52:01;3.10;;;2.80;;
2724;SDS011;1370;52.596;13.112;2023-03-01T12:54:33;2.43;;;2.17;;
2724;SDS011;1370;52.596;13.112;2023-03-01T12:57:22;6.23;;;3.47;;
2724;SDS011;1370;52.596;13.112;2023-03-01T13:02:52;6.77;;;4.73;;
2724;SDS011;1370;52.596;13.112;2023-03-01T13:10:47;4.47;;;3.53;;
2724;SDS011;1370;52.596;13.112;2023-03-01T13:13:21;4.27;;;2.63;;
2724;SDS011;1370;52.596;13.112;2023-03-01T13:15:50;2.40;;;2.20;;
2724;SDS011;1370;52.596;13.112;2023-03-01T13:23:08;3.70;;;3.10;;
2724;SDS011;1370;52.596;13.112;2023-03-01T13:28:46;3.50;;;2.50;;
2724;SDS011;1370;52.596;13.112;2023-03-01T13:33:41;5.53;;;2.47;;
2724;SDS011;1370;52.596;13.112;2023-03-01T13:36:11;11.97;;;7.37;;
2724;SDS011;1370;52.596;13.112;2023-03-01T13:38:58;3.20;;;2.13;;
2724;SDS011;1370;52.596;13.112;2023-03-01T13:46:50;5.10;;;2.57;;
2724;SDS011;1370;52.596;13.112;2023-03-01T13:49:34;2.63;;;2.07;;
2724;SDS011;1370;52.596;13.112;2023-03-01T13:52:02;6.03;;;3.00;;
2724;SDS011;1370;52.596;13.112;2023-03-01T13:54:31;2.70;;;2.50;;
2724;SDS011;1370;52.596;13.112;2023-03-01T13:56:58;2.23;;;2.00;;
2724;SDS011;1370;52.596;13.112;2023-03-01T13:59:24;8.33;;;5.37;;
2724;SDS011;1370;52.596;13.112;2023-03-01T14:01:59;28.70;;;12.50;;
2724;SDS011;1370;52.596;13.112;2023-03-01T14:07:09;4.80;;;3.53;;
2724;SDS011;1370;52.596;13.112;2023-03-01T14:09:42;3.10;;;2.73;;
2724;SDS011;1370;52.596;13.112;2023-03-01T14:12:12;7.60;;;4.83;;
2724;SDS011;1370;52.596;13.112;2023-03-01T14:17:29;46.73;;;23.00;;
2724;SDS011;1370;52.596;13.112;2023-03-01T14:19:58;6.53;;;5.10;;
2724;SDS011;1370;52.596;13.112;2023-03-01T14:22:25;7.53;;;3.40;;
2724;SDS011;1370;52.596;13.112;2023-03-01T14:24:57;4.80;;;3.80;;
2724;SDS011;1370;52.596;13.112;2023-03-01T14:27:32;7.30;;;5.40;;
2724;SDS011;1370;52.596;13.112;2023-03-01T14:30:02;3.00;;;2.73;;
2724;SDS011;1370;52.596;13.112;2023-03-01T14:32:30;3.63;;;2.90;;
2724;SDS011;1370;52.596;13.112;2023-03-01T14:34:57;47.43;;;27.27;;
2724;SDS011;1370;52.596;13.112;2023-03-01T14:37:27;32.37;;;19.93;;
2724;SDS011;1370;52.596;13.112;2023-03-01T14:39:55;28.63;;;18.00;;
2724;SDS011;1370;52.596;13.112;2023-03-01T14:42:22;10.77;;;7.43;;
2724;SDS011;1370;52.596;13.112;2023-03-01T14:44:50;13.90;;;5.47;;
2724;SDS011;1370;52.596;13.112;2023-03-01T14:47:23;4.90;;;4.50;;
2724;SDS011;1370;52.596;13.112;2023-03-01T14:49:54;3.43;;;3.07;;
2724;SDS011;1370;52.596;13.112;2023-03-01T14:52:23;3.40;;;3.10;;
2724;SDS011;1370;52.596;13.112;2023-03-01T14:54:53;3.07;;;2.77;;
2724;SDS011;1370;52.596;13.112;2023-03-01T14:57:20;3.60;;;2.60;;
2724;SDS011;1370;52.596;13.112;2023-03-01T14:59:46;3.80;;;3.07;;
2724;SDS011;1370;52.596;13.112;2023-03-01T15:02:13;3.93;;;2.70;;
2724;SDS011;1370;52.596;13.112;2023-03-01T15:04:48;5.37;;;2.80;;
2724;SDS011;1370;52.596;13.112;2023-03-01T15:07:14;3.70;;;3.40;;
2724;SDS011;1370;52.596;13.112;2023-03-01T15:09:40;10.83;;;9.70;;
2724;SDS011;1370;52.596;13.112;2023-03-01T15:14:50;4.53;;;3.60;;
2724;SDS011;1370;52.596;13.112;2023-03-01T15:17:26;6.13;;;4.40;;
2724;SDS011;1370;52.596;13.112;2023-03-01T15:19:55;5.30;;;4.10;;
2724;SDS011;1370;52.596;13.112;2023-03-01T15:22:21;6.67;;;3.73;;
2724;SDS011;1370;52.596;13.112;2023-03-01T15:24:48;3.93;;;2.73;;
2724;SDS011;1370;52.596;13.112;2023-03-01T15:27:15;5.07;;;3.07;;
2724;SDS011;1370;52.596;13.112;2023-03-01T15:29:46;2.13;;;1.90;;
2724;SDS011;1370;52.596;13.112;2023-03-01T15:32:24;4.17;;;2.93;;
2724;SDS011;1370;52.596;13.112;2023-03-01T15:34:51;3.23;;;2.63;;
2724;SDS011;1370;52.596;13.112;2023-03-01T15:40:02;2.87;;;2.67;;
2724;SDS011;1370;52.596;13.112;2023-03-01T15:45:07;2.77;;;2.57;;
2724;SDS011;1370;52.596;13.112;2023-03-01T15:47:48;3.70;;;2.90;;
2724;SDS011;1370;52.596;13.112;2023-03-01T15:50:25;4.70;;;3.17;;
2724;SDS011;1370;52.596;13.112;2023-03-01T15:52:55;6.03;;;5.33;;
2724;SDS011;1370;52.596;13.112;2023-03-01T15:55:22;4.23;;;3.60;;
2724;SDS011;1370;52.596;13.112;2023-03-01T15:58:02;4.70;;;3.43;;
2724;SDS011;1370;52.596;13.112;2023-03-01T16:00:29;4.00;;;3.60;;
2724;SDS011;1370;52.596;13.112;2023-03-01T16:02:54;4.83;;;3.67;;
2724;SDS011;1370;52.596;13.112;2023-03-01T16:05:25;4.87;;;3.10;;
2724;SDS011;1370;52.596;13.112;2023-03-01T16:07:52;3.97;;;2.97;;
2724;SDS011;1370;52.596;13.112;2023-03-01T16:10:18;3.90;;;2.80;;
2724;SDS011;1370;52.596;13.112;2023-03-01T16:12:43;7.83;;;3.30;;
2724;SDS011;1370;52.596;13.112;2023-03-01T16:15:19;8.93;;;3.63;;
2724;SDS011;1370;52.596;13.112;2023-03-01T16:17:46;4.20;;;3.00;;
2724;SDS011;1370;52.596;13.112;2023-03-01T16:20:12;4.67;;;3.30;;
2724;SDS011;1370;52.596;13.112;2023-03-01T16:22:40;6.70;;;4.70;;
2724;SDS011;1370;52.596;13.112;2023-03-01T16:25:05;5.57;;;3.10;;
2724;SDS011;1370;52.596;13.112;2023-03-01T16:27:33;6.47;;;3.83;;
2724;SDS011;1370;52.596;13.112;2023-03-01T16:29:58;3.90;;;2.67;;
2724;SDS011;1370;52.596;13.112;2023-03-01T16:32:23;5.53;;;3.70;;
2724;SDS011;1370;52.596;13.112;2023-03-01T16:34:48;11.23;;;4.10;;
2724;SDS011;1370;52.596;13.112;2023-03-01T16:37:14;10.40;;;3.90;;